Time;durP1;ratioP1;P1;durP2;ratioP2;P2;SDS_P1;SDS_P2;PMS_P1;PMS_P2;Temp;Humidity;BMP_temperature;BMP_pressure;BME280_temperature;BME280_humidity;BME280_pressure;Samples;Min_cycle;Max_cycle;Signal;HPM_P1;HPM_P2
2021/03/13 00:01:13;;;;;;;44.00;27.03;;;;;;;1.91;75.08;100770.16;5050573;28;20040;-66
2021/03/13 00:03:38;;;;;;;35.63;24.87;;;;;;;1.59;74.83;100726.97;5050759;28;20082;-66
2021/03/13 00:06:05;;;;;;;37.13;23.90;;;;;;;1.55;76.30;100776.72;5051731;28;20029;-65
2021/03/13 00:08:33;;;;;;;36.17;24.57;;;;;;;1.50;76.84;100775.50;5050707;28;20036;-63
2021/03/13 00:10:59;;;;;;;39.83;24.10;;;;;;;1.30;77.36;100773.94;5051082;28;20029;-66
2021/03/13 00:13:24;;;;;;;37.13;23.83;;;;;;;1.50;77.15;100779.72;5051504;28;20037;-67
2021/03/13 00:15:50;;;;;;;53.73;27.63;;;;;;;1.64;76.98;100768.06;5036915;28;20484;-63
2021/03/13 00:18:15;;;;;;;82.10;58.67;;;;;;;1.68;77.17;100747.16;5052174;28;20044;-66
2021/03/13 00:20:42;;;;;;;39.73;25.87;;;;;;;1.94;75.71;100744.94;5051169;28;20440;-65
2021/03/13 00:23:08;;;;;;;77.93;33.67;;;;;;;2.04;75.31;100750.72;5050346;28;20032;-64
2021/03/13 00:25:36;;;;;;;64.23;29.73;;;;;;;2.06;75.14;100734.78;5046914;28;20029;-68
2021/03/13 00:28:02;;;;;;;38.80;23.73;;;;;;;1.97;75.78;100700.09;5050019;28;20119;-66
2021/03/13 00:30:32;;;;;;;31.57;21.30;;;;;;;2.27;75.90;100724.44;5051143;28;20029;-66
2021/03/13 00:33:06;;;;;;;31.13;20.93;;;;;;;2.41;76.02;100721.22;5052725;28;20056;-66
2021/03/13 00:35:32;;;;;;;36.73;23.93;;;;;;;2.54;76.01;100723.03;5024604;28;20033;-65
2021/03/13 00:37:59;;;;;;;38.60;23.77;;;;;;;2.62;74.98;100725.25;5049945;28;20036;-69
2021/03/13 00:40:26;;;;;;;38.60;25.07;;;;;;;2.62;74.80;100710.84;5050041;28;20108;-65
2021/03/13 00:42:52;;;;;;;36.73;24.30;;;;;;;2.68;74.76;100718.94;5050620;28;20031;-66
2021/03/13 00:45:20;;;;;;;37.70;24.27;;;;;;;2.13;74.59;100641.91;5049831;28;20044;-67
2021/03/13 00:47:46;;;;;;;39.90;23.67;;;;;;;2.30;76.15;100731.44;5046356;28;20021;-69
2021/03/13 00:50:13;;;;;;;35.73;24.03;;;;;;;2.27;76.77;100729.53;5050326;28;20021;-66
2021/03/13 00:52:39;;;;;;;41.57;24.67;;;;;;;2.26;76.59;100722.66;5046439;28;20029;-69
2021/03/13 00:55:06;;;;;;;42.47;25.83;;;;;;;2.20;76.16;100717.13;5047899;28;20032;-67
2021/03/13 00:57:32;;;;;;;32.37;20.43;;;;;;;2.00;76.09;100672.34;5045991;28;20468;-66
2021/03/13 00:59:57;;;;;;;35.27;22.50;;;;;;;2.28;75.23;100732.97;5042102;28;20021;-68
2021/03/13 01:02:23;;;;;;;32.57;22.00;;;;;;;2.14;74.72;100714.97;5049018;28;20102;-67
2021/03/13 01:04:48;;;;;;;36.43;23.13;;;;;;;2.14;74.73;100714.97;5016107;28;20124;-68
2021/03/13 01:07:14;;;;;;;37.33;24.23;;;;;;;1.90;74.84;100666.53;5042059;28;20024;-66
2021/03/13 01:09:39;;;;;;;39.33;24.23;;;;;;;1.88;74.71;100659.56;5048332;28;20025;-67
2021/03/13 01:12:06;;;;;;;33.90;23.47;;;;;;;1.67;75.13;100644.47;5048405;28;20025;-70
2021/03/13 01:14:32;;;;;;;39.20;23.73;;;;;;;1.84;75.02;100689.00;5039785;28;20028;-66
2021/03/13 01:16:57;;;;;;;36.17;22.23;;;;;;;1.54;75.58;100644.31;5023497;28;20029;-66
2021/03/13 01:19:23;;;;;;;34.70;22.20;;;;;;;1.86;75.45;100694.22;5048304;28;20412;-67
2021/03/13 01:21:48;;;;;;;36.43;22.23;;;;;;;1.90;74.82;100693.69;5044866;28;20025;-69
2021/03/13 01:24:14;;;;;;;34.47;21.47;;;;;;;1.85;74.34;100688.22;5048892;28;20044;-67
2021/03/13 01:26:39;;;;;;;34.67;23.03;;;;;;;1.87;74.68;100694.34;5045033;28;20025;-69
2021/03/13 01:29:05;;;;;;;39.37;21.73;;;;;;;1.57;75.13;100637.81;5045540;28;20032;-67
2021/03/13 01:31:31;;;;;;;34.97;21.53;;;;;;;1.81;75.23;100682.78;5048245;28;20033;-65
2021/03/13 01:33:57;;;;;;;65.90;45.97;;;;;;;1.73;75.27;100672.94;5044513;28;20088;-68
2021/03/13 01:36:23;;;;;;;52.50;35.70;;;;;;;1.69;75.34;100664.94;5047393;28;20431;-67
2021/03/13 01:38:48;;;;;;;59.17;37.97;;;;;;;1.70;75.80;100664.19;5041691;28;20494;-68
2021/03/13 01:41:14;;;;;;;55.73;39.77;;;;;;;1.68;75.62;100661.50;5046183;28;20053;-67
2021/03/13 01:43:40;;;;;;;50.83;36.70;;;;;;;1.64;75.91;100654.41;5043468;28;20404;-67
2021/03/13 01:46:06;;;;;;;59.17;42.33;;;;;;;1.65;75.82;100646.00;5043170;28;20037;-66
2021/03/13 01:48:38;;;;;;;50.97;32.47;;;;;;;1.68;75.81;100640.25;5045207;28;20052;-63
2021/03/13 01:51:04;;;;;;;45.87;30.13;;;;;;;1.69;75.33;100634.41;5014006;28;20060;-67
2021/03/13 01:53:30;;;;;;;40.83;26.77;;;;;;;1.59;75.60;100627.72;5049293;28;20480;-66
2021/03/13 01:55:55;;;;;;;100.20;42.63;;;;;;;1.11;75.67;100547.84;5052813;28;20040;-69
2021/03/13 01:58:21;;;;;;;56.57;30.03;;;;;;;1.12;76.45;100578.47;5052223;28;20036;-67
2021/03/13 02:00:47;;;;;;;68.57;43.53;;;;;;;1.39;76.91;100621.13;5054182;28;20557;-67
2021/03/13 02:03:12;;;;;;;121.07;51.87;;;;;;;1.39;76.97;100621.13;5052765;28;20432;-67
2021/03/13 02:05:43;;;;;;;111.73;50.13;;;;;;;1.34;77.01;100630.94;5053095;28;20396;-67
2021/03/13 02:08:16;;;;;;;109.20;46.57;;;;;;;1.14;77.43;100609.09;5054192;28;20100;-65
2021/03/13 02:11:00;;;;;;;126.50;50.83;;;;;;;1.12;77.89;100633.50;5053247;28;20083;-67
2021/03/13 02:13:33;;;;;;;52.00;32.83;;;;;;;0.92;78.52;100621.78;5040592;28;20029;-67
2021/03/13 02:16:13;;;;;;;143.23;62.03;;;;;;;0.97;78.85;100612.84;5053799;28;20060;-67
2021/03/13 02:18:56;;;;;;;;;;;;;;;1.00;79.16;100620.75;5052949;28;20037;-66
2021/03/13 02:21:27;;;;;;;91.20;43.90;;;;;;;0.95;79.25;100627.13;5050327;28;19920;-67
2021/03/13 02:24:11;;;;;;;61.03;36.37;;;;;;;0.87;79.66;100628.16;5052865;28;20024;-64
2021/03/13 02:27:05;;;;;;;64.93;40.73;;;;;;;0.58;79.68;100588.66;5044239;28;20381;-68
2021/03/13 02:29:46;;;;;;;53.17;34.80;;;;;;;0.89;79.71;100640.22;4970095;28;20038;-66
2021/03/13 02:32:20;;;;;;;62.07;42.50;;;;;;;1.00;79.01;100651.25;4972225;28;20077;-67
2021/03/13 02:34:50;;;;;;;63.37;40.63;;;;;;;1.11;78.75;100655.50;4972141;28;20035;-68
2021/03/13 02:37:22;;;;;;;57.70;40.35;;;;;;;0.74;79.01;100617.03;4971648;28;20035;-68
2021/03/13 02:39:51;;;;;;;86.97;45.60;;;;;;;0.69;78.92;100598.00;4971086;28;20109;-65
2021/03/13 02:42:18;;;;;;;56.20;35.40;;;;;;;0.81;78.58;100608.25;4972177;28;20042;-67
2021/03/13 02:44:47;;;;;;;65.87;39.13;;;;;;;0.90;79.12;100648.75;4971616;28;20510;-68
2021/03/13 02:47:13;;;;;;;52.67;33.03;;;;;;;1.02;79.58;100649.69;4972376;28;20035;-68
2021/03/13 02:49:43;;;;;;;46.67;29.93;;;;;;;1.08;79.06;100649.28;4970965;28;20070;-67
2021/03/13 02:52:11;;;;;;;48.07;31.30;;;;;;;0.83;79.31;100616.00;4972130;28;20033;-67
2021/03/13 02:54:39;;;;;;;58.97;37.10;;;;;;;1.09;79.64;100664.66;4971122;28;20159;-67
2021/03/13 02:57:07;;;;;;;58.13;35.13;;;;;;;1.07;79.02;100645.88;4971964;28;20050;-68
2021/03/13 02:59:37;;;;;;;56.80;37.87;;;;;;;1.17;79.01;100655.06;4971016;28;20578;-68
2021/03/13 03:02:03;;;;;;;51.43;34.87;;;;;;;1.20;79.28;100664.63;4970119;28;20557;-66
2021/03/13 03:04:30;;;;;;;53.87;32.30;;;;;;;1.17;79.76;100669.47;4951708;28;20122;-66
2021/03/13 03:06:58;;;;;;;51.23;31.93;;;;;;;1.18;78.91;100666.16;5029406;28;20091;-67
2021/03/13 03:09:24;;;;;;;53.47;31.90;;;;;;;1.25;79.06;100658.25;5043962;28;20108;-67
2021/03/13 03:11:50;;;;;;;51.07;32.40;;;;;;;1.33;79.33;100651.19;5050971;28;20103;-67
2021/03/13 03:14:18;;;;;;;57.07;31.13;;;;;;;1.15;78.37;100604.88;5041158;28;20030;-67
2021/03/13 03:16:48;;;;;;;55.63;33.70;;;;;;;1.42;77.83;100646.78;5048306;28;20055;-67
2021/03/13 03:19:17;;;;;;;75.67;50.37;;;;;;;1.19;77.78;100610.31;5043955;28;20152;-67
2021/03/13 03:21:44;;;;;;;93.13;61.70;;;;;;;1.22;77.76;100602.03;5044935;28;20025;-65
2021/03/13 03:24:10;;;;;;;65.67;41.53;;;;;;;1.55;77.99;100643.53;5048121;28;20025;-67
2021/03/13 03:26:36;;;;;;;52.90;32.90;;;;;;;1.53;77.41;100625.59;5041196;28;20322;-66
2021/03/13 03:29:02;;;;;;;47.97;30.23;;;;;;;1.72;76.33;100638.06;5049370;28;20067;-67
2021/03/13 03:31:28;;;;;;;59.10;38.70;;;;;;;1.76;75.21;100637.50;5048792;28;20029;-68
2021/03/13 03:33:54;;;;;;;43.50;28.10;;;;;;;1.76;75.37;100634.09;5041659;28;20060;-67
2021/03/13 03:36:19;;;;;;;39.40;26.33;;;;;;;1.44;75.03;100614.75;5035914;28;20047;-66
2021/03/13 03:38:45;;;;;;;43.07;27.70;;;;;;;1.38;74.67;100645.66;5037542;28;20029;-67
2021/03/13 03:41:11;;;;;;;42.93;27.07;;;;;;;1.32;75.04;100646.88;5039136;28;20025;-66
2021/03/13 03:43:43;;;;;;;43.03;27.97;;;;;;;1.34;75.98;100638.59;5045974;28;20511;-67
2021/03/13 03:46:10;;;;;;;40.07;26.07;;;;;;;1.31;76.24;100623.09;5052454;28;20040;-67
2021/03/13 03:48:37;;;;;;;42.70;26.93;;;;;;;1.35;76.40;100614.94;5050848;28;20024;-63
2021/03/13 03:51:09;;;;;;;44.13;28.20;;;;;;;1.31;76.68;100615.47;5051918;28;20439;-67
2021/03/13 03:53:38;;;;;;;38.47;24.63;;;;;;;0.69;76.62;100602.22;5051838;28;20068;-68
2021/03/13 03:56:05;;;;;;;41.17;26.15;;;;;;;0.06;78.35;100563.41;5041348;28;20500;-68
2021/03/13 03:58:43;;;;;;;40.27;26.87;;;;;;;0.29;78.66;100599.94;5048175;28;20021;-67
2021/03/13 04:01:10;;;;;;;40.30;25.63;;;;;;;0.32;78.71;100612.88;5048529;28;20441;-66
2021/03/13 04:03:39;;;;;;;46.60;28.50;;;;;;;0.48;78.70;100617.53;5046111;28;20111;-67
2021/03/13 04:06:09;;;;;;;37.72;26.33;;;;;;;0.63;78.73;100615.31;5049960;28;20112;-67
2021/03/13 04:08:37;;;;;;;45.97;29.73;;;;;;;0.67;78.46;100614.78;5042871;28;20470;-66
2021/03/13 04:11:03;;;;;;;51.60;33.20;;;;;;;0.58;78.57;100583.59;5045314;28;20021;-69
2021/03/13 04:13:29;;;;;;;45.03;30.60;;;;;;;0.84;78.50;100631.34;5047026;28;20029;-67
2021/03/13 04:15:55;;;;;;;39.53;26.27;;;;;;;0.88;78.62;100619.78;5049862;28;20032;-67
2021/03/13 04:18:21;;;;;;;39.07;26.13;;;;;;;0.87;78.99;100623.09;5051697;28;20116;-66
2021/03/13 04:20:49;;;;;;;38.80;23.93;;;;;;;0.83;79.35;100616.88;5050524;28;20021;-66
2021/03/13 04:23:18;;;;;;;38.97;25.67;;;;;;;0.87;79.73;100628.16;5051759;28;20388;-67
2021/03/13 04:25:46;;;;;;;44.27;25.47;;;;;;;0.44;79.95;100570.66;5051646;28;20033;-67
2021/03/13 04:28:11;;;;;;;43.70;27.23;;;;;;;0.60;80.80;100643.91;5050601;28;20178;-70
2021/03/13 04:30:37;;;;;;;42.40;28.60;;;;;;;0.45;80.80;100632.53;5051109;28;20555;-66
2021/03/13 04:33:03;;;;;;;47.60;29.40;;;;;;;0.25;82.12;100636.00;5050055;28;20045;-63
2021/03/13 04:35:30;;;;;;;42.90;26.63;;;;;;;0.37;82.08;100644.59;5051380;28;20037;-71
2021/03/13 04:37:56;;;;;;;43.80;26.43;;;;;;;-0.08;82.46;100595.31;5050340;28;20033;-67
2021/03/13 04:40:23;;;;;;;43.17;24.43;;;;;;;-0.26;83.60;100639.47;5051675;28;20076;-68
2021/03/13 04:42:50;;;;;;;46.10;27.17;;;;;;;-0.47;84.86;100646.19;5050072;28;20396;-70
2021/03/13 04:45:16;;;;;;;43.67;27.93;;;;;;;-0.14;83.76;100644.69;5051564;28;20048;-69
2021/03/13 04:47:47;;;;;;;49.97;31.10;;;;;;;-0.09;83.48;100640.88;5049620;28;20021;-66
2021/03/13 04:50:15;;;;;;;54.80;32.83;;;;;;;0.09;83.22;100637.28;5048597;28;20053;-66
2021/03/13 04:52:40;;;;;;;64.13;34.87;;;;;;;0.28;82.74;100647.28;5041313;28;20021;-67
2021/03/13 04:55:06;;;;;;;74.03;46.03;;;;;;;0.18;82.49;100610.91;5049265;28;20028;-67
2021/03/13 04:57:32;;;;;;;67.57;47.23;;;;;;;0.30;82.00;100616.97;5041311;28;20013;-69
2021/03/13 04:59:57;;;;;;;76.07;49.30;;;;;;;0.54;82.41;100673.03;5049815;28;20467;-68
2021/03/13 05:02:23;;;;;;;51.83;33.30;;;;;;;0.35;83.18;100671.53;5042386;28;20014;-68
2021/03/13 05:04:48;;;;;;;50.00;31.13;;;;;;;0.15;84.34;100673.34;5046125;28;20025;-69
2021/03/13 05:07:14;;;;;;;59.03;34.10;;;;;;;0.26;83.90;100661.53;5044916;28;20021;-70
2021/03/13 05:09:40;;;;;;;55.63;33.83;;;;;;;0.23;83.82;100662.94;5038222;28;20020;-68
2021/03/13 05:12:07;;;;;;;58.33;34.73;;;;;;;0.45;83.89;100663.91;5034453;28;20021;-66
2021/03/13 05:14:32;;;;;;;58.27;36.23;;;;;;;0.55;83.41;100669.69;5044844;28;20025;-68
2021/03/13 05:16:58;;;;;;;55.23;36.03;;;;;;;0.44;82.97;100643.47;5046592;28;20028;-67
2021/03/13 05:19:23;;;;;;;56.03;33.87;;;;;;;0.66;82.96;100679.09;5040557;28;20025;-67
2021/03/13 05:21:49;;;;;;;54.33;32.23;;;;;;;0.27;83.67;100650.59;5046586;28;20029;-67
2021/03/13 05:24:14;;;;;;;50.70;32.53;;;;;;;0.30;84.80;100688.06;5044256;28;20040;-67
2021/03/13 05:26:40;;;;;;;52.13;32.77;;;;;;;0.14;84.87;100630.06;5045756;28;20082;-67
2021/03/13 05:29:05;;;;;;;51.87;31.57;;;;;;;0.64;84.78;100678.06;5046081;28;20018;-67
2021/03/13 05:31:30;;;;;;;47.10;31.23;;;;;;;0.86;83.75;100669.59;5045448;28;20468;-65
2021/03/13 05:33:56;;;;;;;55.27;34.40;;;;;;;0.96;83.46;100670.44;5051137;28;20049;-65
2021/03/13 05:36:21;;;;;;;50.00;32.70;;;;;;;1.06;82.97;100653.34;5046152;28;20038;-71
2021/03/13 05:38:47;;;;;;;50.53;31.83;;;;;;;1.08;82.42;100664.56;5048961;28;20509;-68
2021/03/13 05:41:15;;;;;;;56.33;31.70;;;;;;;0.98;82.55;100655.31;5048066;28;20116;-69
2021/03/13 05:43:43;;;;;;;52.67;32.33;;;;;;;1.03;83.18;100648.94;5053667;28;20037;-70
2021/03/13 05:46:09;;;;;;;52.73;32.47;;;;;;;0.99;82.85;100618.09;5054750;28;20420;-69
2021/03/13 05:48:35;;;;;;;45.27;31.37;;;;;;;1.37;82.56;100648.09;5053198;28;20032;-66
2021/03/13 05:51:02;;;;;;;46.83;30.40;;;;;;;1.44;82.53;100651.22;5054454;28;20063;-66
2021/03/13 05:53:31;;;;;;;49.67;32.30;;;;;;;1.51;82.11;100652.59;5052805;28;20033;-66
2021/03/13 05:55:58;;;;;;;45.90;31.42;;;;;;;1.66;81.67;100660.50;5052604;28;20163;-65
2021/03/13 05:58:23;;;;;;;50.97;32.10;;;;;;;1.84;81.90;100672.84;5052636;28;20029;-66
2021/03/13 06:00:50;;;;;;;59.37;32.80;;;;;;;2.04;83.65;100672.66;5039164;28;20040;-69
2021/03/13 06:03:16;;;;;;;47.93;29.90;;;;;;;2.19;82.77;100677.13;5047733;28;20033;-70
2021/03/13 06:05:45;;;;;;;47.57;30.53;;;;;;;2.38;83.08;100672.63;5053405;28;20027;-69
2021/03/13 06:08:13;;;;;;;878.05;343.10;;;;;;;2.44;82.25;100669.59;5051713;28;20052;-70
2021/03/13 06:10:38;;;;;;;185.57;77.27;;;;;;;2.43;82.96;100683.16;5047175;28;20048;-70
2021/03/13 06:13:06;;;;;;;113.57;51.97;;;;;;;2.52;83.45;100683.81;5043841;28;20025;-67
2021/03/13 06:15:31;;;;;;;71.77;39.13;;;;;;;2.62;83.23;100677.72;5049454;28;20407;-68
2021/03/13 06:17:59;;;;;;;81.83;46.67;;;;;;;2.73;82.90;100683.59;5045495;28;20903;-69
2021/03/13 06:20:35;;;;;;;109.63;63.13;;;;;;;2.82;82.68;100688.47;5041908;28;20064;-69
2021/03/13 06:23:13;;;;;;;71.73;45.80;;;;;;;2.85;82.39;100686.13;5038928;28;20032;-67
2021/03/13 06:25:39;;;;;;;75.17;43.07;;;;;;;2.85;82.14;100699.75;5053319;28;20480;-68
2021/03/13 06:28:17;;;;;;;50.80;36.40;;;;;;;2.74;82.27;100693.91;5052347;28;20036;-67
2021/03/13 06:30:51;;;;;;;55.07;34.90;;;;;;;2.64;81.88;100704.22;5045184;28;20078;-68
2021/03/13 06:33:18;;;;;;;47.37;34.07;;;;;;;2.52;82.63;100709.28;5052014;28;20040;-67
2021/03/13 06:35:43;;;;;;;50.27;33.57;;;;;;;2.53;83.29;100697.41;5046961;28;20029;-66
2021/03/13 06:38:18;;;;;;;52.37;34.93;;;;;;;2.57;83.63;100707.09;5052190;28;20040;-65
2021/03/13 06:40:45;;;;;;;50.77;32.63;;;;;;;2.47;83.05;100710.63;5052055;28;20021;-67
2021/03/13 06:43:22;;;;;;;55.23;37.50;;;;;;;2.62;83.56;100703.22;5053351;28;20036;-68
2021/03/13 06:46:10;;;;;;;57.23;36.97;;;;;;;2.80;82.91;100707.84;5050525;28;20037;-69
2021/03/13 06:48:36;;;;;;;53.60;34.90;;;;;;;2.92;82.50;100711.28;5035533;28;20021;-65
2021/03/13 06:51:18;;;;;;;49.10;33.43;;;;;;;3.03;81.57;100707.84;5053238;28;20033;-69
2021/03/13 06:53:46;;;;;;;46.60;32.83;;;;;;;2.71;82.81;100701.31;5052371;28;20063;-68
2021/03/13 06:56:12;;;;;;;50.90;33.93;;;;;;;2.92;82.02;100711.28;5052217;28;20093;-69
2021/03/13 06:58:39;;;;;;;54.23;36.40;;;;;;;2.73;81.95;100669.16;5053199;28;20387;-68
2021/03/13 07:01:05;;;;;;;50.83;35.20;;;;;;;3.07;83.04;100694.50;5019464;28;20056;-69
2021/03/13 07:03:32;;;;;;;55.03;36.33;;;;;;;3.28;82.77;100691.69;5052926;28;20032;-68
2021/03/13 07:05:58;;;;;;;48.97;32.17;;;;;;;3.20;83.07;100703.94;5052811;28;20060;-69
2021/03/13 07:08:31;;;;;;;42.17;29.33;;;;;;;3.29;82.36;100688.38;5051773;28;20032;-69
2021/03/13 07:11:03;;;;;;;42.53;29.27;;;;;;;3.31;81.91;100693.59;5047778;28;20037;-69
2021/03/13 07:13:39;;;;;;;49.37;31.90;;;;;;;3.37;82.47;100692.31;5052054;28;20025;-69
2021/03/13 07:16:33;;;;;;;50.03;33.50;;;;;;;3.38;83.39;100690.69;5052498;28;20484;-69
2021/03/13 07:19:06;;;;;;;48.60;32.17;;;;;;;3.48;83.71;100674.34;5052518;28;20528;-69
2021/03/13 07:21:34;;;;;;;265.37;92.57;;;;;;;3.76;82.85;100683.88;5052610;28;20029;-69
2021/03/13 07:24:04;;;;;;;117.67;58.10;;;;;;;3.93;83.19;100670.56;5052692;28;20119;-69
2021/03/13 07:26:46;;;;;;;48.00;33.67;;;;;;;3.82;82.29;100636.63;5052371;28;20029;-69
2021/03/13 07:29:14;;;;;;;40.40;28.80;;;;;;;4.11;81.52;100685.34;5052412;28;20025;-69
2021/03/13 07:31:43;;;;;;;38.30;28.20;;;;;;;4.12;81.40;100672.66;5052640;28;20025;-69
2021/03/13 07:34:19;;;;;;;41.50;29.93;;;;;;;4.13;80.41;100648.00;5052628;28;20049;-69
2021/03/13 07:36:51;;;;;;;44.33;31.33;;;;;;;4.50;80.39;100699.84;5052591;28;20029;-69
2021/03/13 07:39:19;;;;;;;41.33;29.87;;;;;;;4.36;81.52;100695.50;5052476;28;20029;-68
2021/03/13 07:41:56;;;;;;;43.87;30.33;;;;;;;4.29;80.97;100689.09;5052734;28;20094;-69
2021/03/13 07:44:21;;;;;;;42.27;30.37;;;;;;;4.40;81.13;100683.81;5046514;28;20445;-69
2021/03/13 07:46:48;;;;;;;42.80;30.23;;;;;;;4.57;80.57;100688.34;5052131;28;20033;-69
2021/03/13 07:49:15;;;;;;;41.33;28.90;;;;;;;4.71;80.45;100684.13;5051772;28;20033;-69
2021/03/13 07:51:42;;;;;;;41.45;28.50;;;;;;;4.90;78.60;100698.06;5051814;28;20025;-67
2021/03/13 07:54:22;;;;;;;42.88;29.25;;;;;;;4.81;79.79;100706.03;5052854;28;20033;-67
2021/03/13 07:56:49;;;;;;;38.22;27.23;;;;;;;4.73;80.05;100704.69;4942145;28;20043;-69
2021/03/13 07:59:42;;;;;;;37.65;27.33;;;;;;;4.87;79.57;100696.19;4972171;28;20399;-69
2021/03/13 08:02:07;;;;;;;36.60;26.13;;;;;;;5.00;77.71;100682.53;4954831;28;20069;-67
2021/03/13 08:04:42;;;;;;;40.78;26.92;;;;;;;5.17;76.86;100689.59;4964509;28;20422;-69
2021/03/13 08:07:08;;;;;;;34.42;25.52;;;;;;;5.28;76.71;100687.69;4959924;28;20043;-69
2021/03/13 08:09:43;;;;;;;40.45;24.98;;;;;;;5.27;78.80;100683.38;4970926;28;20046;-69
2021/03/13 08:12:09;;;;;;;36.45;24.60;;;;;;;5.23;77.91;100647.25;4970357;28;20113;-69
2021/03/13 08:14:36;;;;;;;32.50;24.30;;;;;;;5.48;76.40;100671.00;4970393;28;20031;-69
2021/03/13 08:17:37;;;;;;;30.73;20.77;;;;;;;5.44;76.28;100680.94;4970596;28;20537;-69
2021/03/13 08:20:10;;;;;;;32.33;23.27;;;;;;;5.27;77.35;100638.94;4970511;28;20027;-69
2021/03/13 08:22:36;;;;;;;27.08;20.20;;;;;;;5.54;76.35;100678.16;4970507;28;20553;-69
2021/03/13 08:25:24;;;;;;;31.58;22.77;;;;;;;5.74;76.76;100684.47;4970563;28;20030;-69
2021/03/13 08:27:49;;;;;;;32.40;23.70;;;;;;;5.92;75.75;100668.41;4980951;28;20533;-69
2021/03/13 08:30:19;;;;;;;29.35;22.75;;;;;;;6.18;75.47;100675.13;4990140;28;20066;-69
2021/03/13 08:33:07;;;;;;;30.13;23.27;;;;;;;6.52;75.23;100674.47;4989826;28;20130;-69
2021/03/13 08:35:46;;;;;;;38.57;27.00;;;;;;;6.80;75.34;100673.44;4990009;28;20425;-69
2021/03/13 08:38:13;;;;;;;32.75;23.98;;;;;;;7.03;73.90;100666.09;4989712;28;20413;-69
2021/03/13 08:40:45;;;;;;;29.10;21.13;;;;;;;6.95;72.80;100670.84;4989630;28;20066;-69
2021/03/13 08:43:40;;;;;;;27.95;20.00;;;;;;;7.00;72.71;100661.69;4973065;28;20125;-69
2021/03/13 08:46:44;;;;;;;28.98;20.52;;;;;;;7.12;73.42;100666.63;4914527;29;20445;-69
2021/03/13 08:49:25;;;;;;;26.63;20.50;;;;;;;7.26;71.36;100660.56;4931826;29;20115;-69
2021/03/13 08:52:09;;;;;;;30.00;21.42;;;;;;;7.06;72.86;100661.16;4931558;29;20055;-69
2021/03/13 08:54:37;;;;;;;32.67;24.40;;;;;;;7.18;73.09;100655.78;4931957;29;20122;-69
2021/03/13 08:57:27;;;;;;;49.10;31.30;;;;;;;7.43;72.14;100646.03;4931790;29;20043;-69
2021/03/13 08:59:55;;;;;;;30.85;23.80;;;;;;;7.70;72.03;100644.78;4875240;29;20072;-69
2021/03/13 09:02:30;;;;;;;33.65;23.98;;;;;;;7.85;71.46;100639.56;4875006;29;20546;-68
2021/03/13 09:05:09;;;;;;;28.52;23.05;;;;;;;7.84;70.73;100633.53;4877246;29;20076;-65
2021/03/13 09:07:35;;;;;;;30.15;23.02;;;;;;;7.97;70.41;100636.72;4878572;29;20057;-68
2021/03/13 09:10:01;;;;;;;33.97;24.92;;;;;;;7.77;71.72;100582.63;4878641;29;20041;-69
2021/03/13 09:12:29;;;;;;;28.45;21.27;;;;;;;8.12;70.71;100618.63;4878477;29;20084;-70
2021/03/13 09:14:57;;;;;;;33.50;24.13;;;;;;;8.07;71.69;100610.66;4878546;29;20065;-69
2021/03/13 09:17:24;;;;;;;29.52;22.23;;;;;;;8.20;71.74;100612.13;4878470;29;20048;-71
2021/03/13 09:19:51;;;;;;;32.50;22.55;;;;;;;8.28;71.91;100594.53;4878434;29;20509;-69
2021/03/13 09:22:19;;;;;;;30.05;22.95;;;;;;;8.37;70.21;100577.84;4896301;29;20130;-67
2021/03/13 09:24:58;;;;;;;30.30;23.15;;;;;;;8.63;69.00;100588.50;4953733;29;20035;-69
2021/03/13 09:27:25;;;;;;;24.80;18.60;;;;;;;8.58;69.31;100585.72;4952765;29;20093;-69
2021/03/13 09:29:52;;;;;;;26.80;19.67;;;;;;;8.28;69.42;100537.94;4954071;28;20125;-68
2021/03/13 09:32:19;;;;;;;30.38;22.10;;;;;;;8.65;69.13;100578.28;4953704;29;20534;-69
2021/03/13 09:34:46;;;;;;;36.55;23.10;;;;;;;8.89;70.48;100573.38;4953691;29;20576;-67
2021/03/13 09:37:15;;;;;;;27.10;20.88;;;;;;;9.02;69.97;100567.06;5012368;28;20439;-67
2021/03/13 09:39:51;;;;;;;24.17;18.20;;;;;;;9.12;67.76;100566.69;5045422;28;20086;-69
2021/03/13 09:42:24;;;;;;;30.45;19.15;;;;;;;8.90;68.34;100563.13;5045000;28;20025;-70
2021/03/13 09:45:00;;;;;;;26.73;21.10;;;;;;;9.03;68.17;100572.31;5045936;28;20091;-71
2021/03/13 09:47:37;;;;;;;27.35;21.10;;;;;;;9.26;67.92;100587.00;5045093;28;20052;-69
2021/03/13 09:50:06;;;;;;;30.00;22.35;;;;;;;9.37;66.07;100580.63;5044742;28;20387;-69
2021/03/13 09:52:36;;;;;;;27.80;20.52;;;;;;;9.49;66.57;100583.75;5043896;28;20029;-70
2021/03/13 09:55:13;;;;;;;29.60;22.00;;;;;;;9.35;66.83;100574.53;5042867;28;20038;-68
2021/03/13 09:57:44;;;;;;;28.65;22.30;;;;;;;9.51;66.51;100583.81;5053881;28;20111;-71
2021/03/13 10:00:16;;;;;;;27.30;21.40;;;;;;;9.54;67.09;100587.41;5054617;28;20091;-69
2021/03/13 10:02:43;;;;;;;31.73;21.75;;;;;;;9.59;66.60;100577.28;5062223;28;20052;-67
2021/03/13 10:05:13;;;;;;;28.02;23.13;;;;;;;9.77;65.21;100599.50;5051672;28;20025;-68
2021/03/13 10:07:42;;;;;;;27.52;22.88;;;;;;;9.62;65.83;100595.47;5044157;28;20025;-67
2021/03/13 10:10:15;;;;;;;137.93;85.60;;;;;;;9.74;65.42;100589.94;5044508;28;20036;-68
2021/03/13 10:12:46;;;;;;;31.15;22.73;;;;;;;9.86;65.60;100593.03;5044661;28;20292;-68
2021/03/13 10:15:18;;;;;;;32.28;25.17;;;;;;;9.55;64.07;100514.41;5008000;28;20034;-69
2021/03/13 10:17:54;;;;;;;67.65;50.40;;;;;;;9.98;64.20;100589.19;5045381;28;20408;-69
2021/03/13 10:20:22;;;;;;;83.13;45.85;;;;;;;10.00;64.11;100585.00;5044605;28;20044;-68
2021/03/13 10:22:48;;;;;;;29.75;22.70;;;;;;;9.92;62.53;100589.84;5044822;28;20020;-67
2021/03/13 10:25:14;;;;;;;30.30;23.02;;;;;;;10.19;62.60;100578.88;5043545;28;20080;-68
2021/03/13 10:27:41;;;;;;;27.08;21.77;;;;;;;10.33;61.92;100588.06;5042960;28;20465;-68
2021/03/13 10:30:09;;;;;;;27.63;21.83;;;;;;;10.43;62.63;100581.59;5044281;28;20036;-68
2021/03/13 10:32:37;;;;;;;27.17;22.58;;;;;;;10.47;60.15;100586.06;5041474;28;20032;-68
2021/03/13 10:35:10;;;;;;;32.38;24.42;;;;;;;10.78;61.19;100576.00;5035138;28;20109;-68
2021/03/13 10:37:41;;;;;;;28.65;22.60;;;;;;;11.04;57.86;100571.84;5043945;28;20087;-67
2021/03/13 10:40:12;;;;;;;27.67;20.90;;;;;;;10.98;58.01;100572.50;5043052;28;20026;-69
2021/03/13 10:42:38;;;;;;;30.42;22.67;;;;;;;11.11;57.16;100570.34;5025324;28;20029;-67
2021/03/13 10:45:15;;;;;;;27.50;21.67;;;;;;;11.40;56.90;100562.75;5044207;28;20676;-65
2021/03/13 10:47:41;;;;;;;29.25;22.55;;;;;;;11.64;56.22;100545.50;5044208;28;20064;-68
2021/03/13 10:50:07;;;;;;;28.70;22.80;;;;;;;11.33;56.83;100528.94;5043013;28;20029;-68
2021/03/13 10:52:33;;;;;;;31.02;23.63;;;;;;;11.68;55.71;100528.38;5043629;28;20607;-65
2021/03/13 10:54:59;;;;;;;31.15;22.73;;;;;;;11.45;55.80;100532.78;5036003;28;20104;-65
2021/03/13 10:57:24;;;;;;;28.98;24.48;;;;;;;11.54;56.71;100532.19;5033014;28;20033;-71
2021/03/13 10:59:50;;;;;;;29.75;24.38;;;;;;;11.70;55.81;100529.31;5036801;28;20435;-68
2021/03/13 11:02:15;;;;;;;32.85;25.63;;;;;;;11.73;56.76;100529.41;5043560;28;20021;-68
2021/03/13 11:04:41;;;;;;;30.23;22.85;;;;;;;11.60;57.71;100525.56;5043248;28;20021;-68
2021/03/13 11:07:07;;;;;;;28.23;24.02;;;;;;;11.57;56.54;100485.78;5049568;28;20029;-68
2021/03/13 11:09:34;;;;;;;31.25;22.88;;;;;;;11.77;56.17;100515.75;5046483;28;20030;-69
2021/03/13 11:12:00;;;;;;;30.20;23.50;;;;;;;11.80;56.10;100510.69;5048868;28;20029;-69
2021/03/13 11:14:26;;;;;;;27.83;23.95;;;;;;;11.74;55.91;100514.75;5046869;28;20436;-69
2021/03/13 11:16:52;;;;;;;28.10;23.38;;;;;;;11.61;56.10;100497.97;5043645;28;20100;-69
2021/03/13 11:19:18;;;;;;;28.48;23.98;;;;;;;11.60;55.35;100497.09;5040251;28;20116;-69
2021/03/13 11:21:44;;;;;;;29.00;21.35;;;;;;;10.91;57.66;100467.19;5043908;28;20029;-68
2021/03/13 11:24:11;;;;;;;30.00;24.10;;;;;;;11.11;58.89;100511.78;5045052;28;20039;-68
2021/03/13 11:26:37;;;;;;;29.38;24.02;;;;;;;10.76;59.31;100485.59;5041443;28;20040;-68